Time;durP1;ratioP1;P1;durP2;ratioP2;P2;SDS_P1;SDS_P2;PMS_P1;PMS_P2;Temp;Humidity;BMP_temperature;BMP_pressure;BME280_temperature;BME280_humidity;BME280_pressure;Samples;Min_cycle;Max_cycle;Signal;HPM_P1;HPM_P2
2023/06/17 00:02:01;;;;;;;11.02;10.00;;;13.40;99.90;;;;;;4999421;28;20053;-59
2023/06/17 00:04:27;;;;;;;13.38;11.95;;;13.40;99.90;;;;;;4998238;28;20423;-59
2023/06/17 00:06:53;;;;;;;13.35;11.38;;;13.40;99.90;;;;;;4997981;28;20126;-59
2023/06/17 00:09:18;;;;;;;11.75;10.45;;;13.40;99.90;;;;;;4999783;28;20120;-59
2023/06/17 00:11:44;;;;;;;12.38;11.07;;;13.30;99.90;;;;;;4998466;28;20450;-58
2023/06/17 00:14:10;;;;;;;14.85;11.40;;;13.30;99.90;;;;;;5000215;28;20096;-59
2023/06/17 00:16:43;;;;;;;13.82;12.05;;;13.30;99.90;;;;;;4995233;28;20061;-58
2023/06/17 00:19:15;;;;;;;14.90;11.30;;;13.30;99.90;;;;;;4998798;28;20038;-59
2023/06/17 00:21:44;;;;;;;20.05;13.45;;;13.30;99.90;;;;;;4999316;28;20455;-60
2023/06/17 00:24:13;;;;;;;29.95;13.60;;;13.20;99.90;;;;;;5000753;28;20037;-59
2023/06/17 00:26:39;;;;;;;26.42;13.02;;;13.20;99.90;;;;;;4995200;28;20049;-59
2023/06/17 00:29:06;;;;;;;13.73;12.32;;;13.20;99.90;;;;;;4999203;28;20023;-59
2023/06/17 00:31:32;;;;;;;14.43;12.50;;;13.30;99.90;;;;;;5000187;28;20375;-59
2023/06/17 00:33:58;;;;;;;14.77;12.57;;;13.30;99.90;;;;;;4996226;28;20117;-58
2023/06/17 00:36:23;;;;;;;14.02;12.65;;;13.30;99.90;;;;;;4998331;28;20137;-60
2023/06/17 00:38:50;;;;;;;19.02;12.68;;;13.20;99.90;;;;;;4998438;28;20034;-60
2023/06/17 00:41:15;;;;;;;13.57;12.18;;;13.20;99.90;;;;;;4997457;28;20042;-58
2023/06/17 00:43:42;;;;;;;14.77;11.90;;;13.10;99.90;;;;;;5002249;28;20054;-59
2023/06/17 00:46:08;;;;;;;14.32;12.80;;;13.10;99.90;;;;;;4998473;28;20034;-59
2023/06/17 00:48:33;;;;;;;13.30;12.10;;;13.10;99.90;;;;;;4996738;28;20018;-59
2023/06/17 00:51:02;;;;;;;14.00;12.50;;;13.10;99.90;;;;;;4996338;28;20042;-59
2023/06/17 00:53:31;;;;;;;18.55;13.77;;;13.10;99.90;;;;;;4999624;28;20042;-59
2023/06/17 00:55:58;;;;;;;19.13;13.02;;;13.10;99.90;;;;;;4999470;28;20029;-58
2023/06/17 00:58:25;;;;;;;26.95;12.48;;;13.10;99.90;;;;;;5000414;28;20064;-59
2023/06/17 01:00:51;;;;;;;13.77;11.20;;;13.00;99.90;;;;;;4998468;28;20034;-59
2023/06/17 01:03:17;;;;;;;14.30;12.85;;;13.00;99.90;;;;;;4997492;28;20044;-58
2023/06/17 01:05:45;;;;;;;19.13;13.25;;;12.90;99.90;;;;;;4997153;28;20041;-59
2023/06/17 01:08:28;;;;;;;31.85;13.68;;;13.00;99.90;;;;;;4998468;28;20037;-59
2023/06/17 01:11:08;;;;;;;12.95;11.70;;;13.00;99.90;;;;;;4999788;28;20030;-58
2023/06/17 01:13:35;;;;;;;12.98;11.65;;;13.00;99.90;;;;;;4997249;28;20022;-57
2023/06/17 01:16:01;;;;;;;13.95;12.13;;;12.90;99.90;;;;;;4994358;28;20030;-59
2023/06/17 01:18:29;;;;;;;11.65;10.15;;;12.80;99.90;;;;;;5001841;28;20054;-59
2023/06/17 01:20:56;;;;;;;43.45;11.18;;;12.70;99.90;;;;;;4994445;28;20040;-58
2023/06/17 01:23:26;;;;;;;130.45;11.55;;;12.60;99.90;;;;;;4996735;28;20060;-59
2023/06/17 01:25:52;;;;;;;79.03;11.52;;;12.50;99.90;;;;;;4996683;28;20034;-59
2023/06/17 01:28:19;;;;;;;44.22;11.05;;;12.50;99.90;;;;;;5003558;28;20024;-60
2023/06/17 01:30:54;;;;;;;34.17;10.25;;;12.60;99.90;;;;;;4996012;28;20031;-59
2023/06/17 01:33:20;;;;;;;157.43;18.00;;;12.60;99.90;;;;;;4996296;28;20026;-59
2023/06/17 01:35:52;;;;;;;99.00;14.20;;;12.70;99.90;;;;;;4998350;28;20081;-58
2023/06/17 01:38:29;;;;;;;77.47;14.18;;;12.70;99.90;;;;;;4996072;28;20058;-60
2023/06/17 01:41:02;;;;;;;69.00;13.95;;;12.70;99.90;;;;;;4996565;28;20030;-59
2023/06/17 01:43:31;;;;;;;44.95;12.90;;;12.80;99.90;;;;;;4999180;28;20014;-60
2023/06/17 01:45:58;;;;;;;112.00;14.93;;;12.80;99.90;;;;;;5008774;28;20034;-58
2023/06/17 01:48:23;;;;;;;109.18;13.45;;;12.70;99.90;;;;;;5002717;28;20066;-59
2023/06/17 01:50:49;;;;;;;139.52;15.50;;;12.70;99.90;;;;;;5001220;28;20073;-59
2023/06/17 01:53:15;;;;;;;66.75;14.38;;;12.60;99.90;;;;;;5000477;28;20495;-58
2023/06/17 01:55:41;;;;;;;48.95;12.93;;;12.60;99.90;;;;;;4998989;28;20042;-57
2023/06/17 01:58:06;;;;;;;66.32;13.52;;;12.70;99.90;;;;;;5004145;28;20412;-57
2023/06/17 02:00:32;;;;;;;23.30;12.05;;;12.70;99.90;;;;;;5002713;28;20026;-59
2023/06/17 02:02:57;;;;;;;79.43;13.48;;;12.70;99.90;;;;;;4999217;28;20510;-58
2023/06/17 02:05:23;;;;;;;60.95;13.07;;;12.70;99.90;;;;;;4999919;28;20495;-58
2023/06/17 02:07:49;;;;;;;36.75;11.77;;;12.70;99.90;;;;;;5002727;28;20017;-59
2023/06/17 02:10:15;;;;;;;91.05;13.90;;;12.70;99.90;;;;;;4999838;28;20031;-59
2023/06/17 02:12:40;;;;;;;57.35;13.13;;;12.70;99.90;;;;;;4999910;28;20029;-58
2023/06/17 02:15:07;;;;;;;52.65;12.05;;;12.70;99.90;;;;;;4999097;28;20022;-59
2023/06/17 02:17:35;;;;;;;50.42;11.30;;;12.60;99.90;;;;;;4999045;28;20027;-59
2023/06/17 02:20:04;;;;;;;54.03;13.20;;;12.50;99.90;;;;;;5001893;28;20409;-59
2023/06/17 02:22:30;;;;;;;52.47;13.77;;;12.50;99.90;;;;;;5000100;28;20049;-58
2023/06/17 02:24:55;;;;;;;103.50;15.98;;;12.40;99.90;;;;;;4998321;28;20033;-59
2023/06/17 02:27:21;;;;;;;61.88;16.23;;;12.30;99.90;;;;;;4997516;28;20037;-58
2023/06/17 02:29:46;;;;;;;84.80;16.25;;;12.30;99.90;;;;;;4999271;28;20030;-58
2023/06/17 02:32:12;;;;;;;39.17;13.35;;;12.40;99.90;;;;;;5001770;28;20445;-58
2023/06/17 02:34:38;;;;;;;68.10;14.40;;;12.40;99.90;;;;;;4998580;28;20026;-58
2023/06/17 02:37:04;;;;;;;77.65;13.38;;;12.50;99.90;;;;;;5000453;28;20032;-59
2023/06/17 02:39:30;;;;;;;66.72;12.88;;;12.50;99.90;;;;;;5002816;28;20038;-59
2023/06/17 02:41:55;;;;;;;51.60;11.85;;;12.60;99.90;;;;;;4999799;28;20593;-59
2023/06/17 02:44:21;;;;;;;59.78;12.68;;;12.60;99.90;;;;;;5000761;28;20026;-60
2023/06/17 02:46:47;;;;;;;85.95;12.35;;;12.60;99.90;;;;;;4999427;28;20121;-59
2023/06/17 02:49:13;;;;;;;146.93;14.77;;;12.60;99.90;;;;;;4998868;28;20499;-59
2023/06/17 02:51:40;;;;;;;110.75;13.70;;;12.60;99.90;;;;;;5001271;28;20054;-60
2023/06/17 02:54:06;;;;;;;58.72;11.80;;;12.60;99.90;;;;;;5003525;28;20018;-59
2023/06/17 02:56:32;;;;;;;58.75;10.80;;;12.60;99.90;;;;;;5003570;28;20033;-59
2023/06/17 02:58:58;;;;;;;103.78;14.23;;;12.60;99.90;;;;;;4999179;28;20116;-59
2023/06/17 03:01:23;;;;;;;66.60;11.82;;;12.60;99.90;;;;;;5002362;28;20105;-58
2023/06/17 03:03:49;;;;;;;71.72;12.98;;;12.70;99.90;;;;;;4999599;28;20138;-59
2023/06/17 03:06:15;;;;;;;67.03;14.27;;;12.70;99.90;;;;;;5001706;28;20038;-58
2023/06/17 03:08:41;;;;;;;76.32;13.32;;;12.70;99.90;;;;;;5000747;28;20648;-59
2023/06/17 03:11:07;;;;;;;58.60;13.63;;;12.70;99.90;;;;;;4998254;28;20038;-58
2023/06/17 03:13:33;;;;;;;70.00;15.95;;;12.70;99.90;;;;;;4999867;28;20637;-58
2023/06/17 03:16:01;;;;;;;32.22;13.52;;;12.70;99.90;;;;;;4996090;28;20124;-59
2023/06/17 03:18:27;;;;;;;89.57;17.63;;;12.70;99.90;;;;;;4999652;28;20117;-59
2023/06/17 03:20:53;;;;;;;37.72;15.00;;;12.70;99.90;;;;;;5001091;28;20391;-59
2023/06/17 03:23:22;;;;;;;19.80;15.65;;;12.70;99.90;;;;;;4999086;28;20026;-58
2023/06/17 03:25:49;;;;;;;25.17;14.80;;;12.80;99.90;;;;;;5001508;28;20052;-60
2023/06/17 03:28:15;;;;;;;33.45;16.08;;;12.80;99.90;;;;;;5001022;28;20034;-59
2023/06/17 03:30:41;;;;;;;40.38;15.65;;;12.80;99.90;;;;;;4998620;28;20026;-58
2023/06/17 03:33:08;;;;;;;38.17;15.20;;;12.90;99.90;;;;;;4999145;28;20088;-58
2023/06/17 03:35:34;;;;;;;32.55;16.60;;;12.90;99.90;;;;;;5000659;28;20030;-57
2023/06/17 03:38:00;;;;;;;41.28;15.80;;;12.90;99.90;;;;;;4998314;28;20014;-56
2023/06/17 03:40:26;;;;;;;33.92;17.55;;;12.90;99.90;;;;;;4995640;28;20026;-57
2023/06/17 03:42:54;;;;;;;32.78;17.20;;;12.90;99.90;;;;;;4997434;28;20041;-58
2023/06/17 03:45:19;;;;;;;39.50;16.65;;;12.90;99.90;;;;;;4999860;28;20069;-59
2023/06/17 03:47:46;;;;;;;30.42;15.95;;;12.90;99.90;;;;;;4998856;28;20038;-59
2023/06/17 03:50:12;;;;;;;36.95;16.05;;;13.00;99.90;;;;;;4994557;28;20466;-58
2023/06/17 03:52:38;;;;;;;32.22;16.75;;;12.90;99.90;;;;;;4999891;28;20085;-58
2023/06/17 03:55:04;;;;;;;42.22;16.75;;;13.00;99.90;;;;;;4998195;28;20041;-58
2023/06/17 03:57:29;;;;;;;38.15;15.98;;;13.00;99.90;;;;;;5000153;28;20095;-59
2023/06/17 03:59:55;;;;;;;27.45;14.98;;;13.00;99.90;;;;;;5002083;28;20068;-58
2023/06/17 04:02:20;;;;;;;27.73;15.18;;;13.00;99.90;;;;;;4998887;28;20546;-58
2023/06/17 04:04:46;;;;;;;68.60;16.20;;;13.00;99.90;;;;;;4998912;28;20048;-58
2023/06/17 04:07:12;;;;;;;25.00;14.88;;;12.90;99.90;;;;;;4998197;28;20041;-58
2023/06/17 04:09:37;;;;;;;25.33;14.38;;;12.80;99.90;;;;;;4999732;28;20030;-59
2023/06/17 04:12:03;;;;;;;37.13;14.43;;;12.80;99.90;;;;;;4996804;28;20076;-57
2023/06/17 04:14:29;;;;;;;39.25;14.35;;;12.80;99.90;;;;;;4998203;28;20053;-57
2023/06/17 04:16:56;;;;;;;32.88;14.43;;;12.80;99.90;;;;;;4998989;28;20045;-60
2023/06/17 04:19:23;;;;;;;14.57;12.82;;;12.90;99.90;;;;;;4998864;28;20104;-58
2023/06/17 04:21:49;;;;;;;60.78;16.55;;;12.90;99.90;;;;;;4997888;28;20034;-59
2023/06/17 04:24:14;;;;;;;35.97;14.73;;;13.00;99.90;;;;;;4995367;28;20463;-58
2023/06/17 04:26:43;;;;;;;28.75;13.73;;;13.10;99.90;;;;;;4998137;28;20041;-59
2023/06/17 04:29:08;;;;;;;45.05;14.75;;;13.10;99.90;;;;;;4998585;28;20057;-59
2023/06/17 04:31:36;;;;;;;15.48;13.93;;;13.10;99.90;;;;;;4997485;28;20053;-57
2023/06/17 04:34:02;;;;;;;27.33;15.15;;;13.10;99.90;;;;;;4999877;28;20048;-56
2023/06/17 04:36:28;;;;;;;29.42;15.05;;;13.10;99.90;;;;;;4998601;28;20101;-57
2023/06/17 04:38:54;;;;;;;26.38;14.75;;;13.20;99.90;;;;;;4998868;28;20085;-56
2023/06/17 04:41:20;;;;;;;26.33;14.30;;;13.10;99.90;;;;;;4999176;28;20025;-59
2023/06/17 04:43:48;;;;;;;15.30;13.90;;;13.20;99.90;;;;;;4999936;28;20024;-58
2023/06/17 04:46:16;;;;;;;33.40;15.75;;;13.30;99.90;;;;;;4995872;28;20041;-59
2023/06/17 04:48:43;;;;;;;80.43;16.70;;;13.30;99.90;;;;;;4996977;28;20050;-59
2023/06/17 04:51:10;;;;;;;24.25;14.65;;;13.20;99.90;;;;;;5000579;28;20035;-59
2023/06/17 04:53:39;;;;;;;25.73;14.55;;;13.20;99.90;;;;;;4999143;28;20027;-58
2023/06/17 04:56:07;;;;;;;21.85;13.52;;;13.20;99.90;;;;;;5001670;28;20105;-58
2023/06/17 04:58:33;;;;;;;20.45;14.35;;;13.10;99.90;;;;;;4995334;28;20097;-59
2023/06/17 05:00:59;;;;;;;33.60;16.08;;;13.10;99.90;;;;;;4997977;28;20121;-60
2023/06/17 05:03:24;;;;;;;37.80;18.20;;;13.10;99.90;;;;;;4996320;28;20026;-59
2023/06/17 05:05:51;;;;;;;19.90;17.23;;;13.20;99.90;;;;;;4998513;28;20379;-59
2023/06/17 05:08:17;;;;;;;19.35;16.50;;;13.20;99.90;;;;;;4994568;28;20049;-59
2023/06/17 05:10:43;;;;;;;21.08;16.60;;;13.30;99.90;;;;;;4998187;28;20477;-59
2023/06/17 05:13:08;;;;;;;18.27;16.35;;;13.40;99.90;;;;;;4995020;28;20026;-59
2023/06/17 05:15:34;;;;;;;24.85;15.60;;;13.50;99.90;;;;;;4994240;28;20128;-59
2023/06/17 05:18:00;;;;;;;27.33;15.38;;;13.60;99.90;;;;;;4996980;28;20380;-59
2023/06/17 05:20:25;;;;;;;15.68;14.00;;;13.80;99.90;;;;;;4993455;28;20030;-59
2023/06/17 05:22:51;;;;;;;15.10;13.48;;;13.90;99.90;;;;;;4998460;28;20407;-59
2023/06/17 05:25:16;;;;;;;15.70;12.45;;;14.00;99.90;;;;;;4998630;28;20076;-59
2023/06/17 05:27:42;;;;;;;17.13;12.90;;;14.10;99.90;;;;;;4997461;28;20042;-56
2023/06/17 05:30:08;;;;;;;13.82;12.77;;;14.20;99.90;;;;;;4995741;28;20030;-59
2023/06/17 05:32:34;;;;;;;12.50;11.45;;;14.40;99.90;;;;;;4998224;28;20030;-59
2023/06/17 05:34:59;;;;;;;35.83;12.25;;;14.40;99.90;;;;;;4994953;28;20087;-59
2023/06/17 05:37:25;;;;;;;13.13;11.98;;;14.40;99.90;;;;;;4995940;28;20022;-58
2023/06/17 05:39:51;;;;;;;18.05;12.18;;;14.30;99.90;;;;;;4999748;28;20045;-57
2023/06/17 05:42:16;;;;;;;15.68;13.15;;;14.10;99.90;;;;;;4994793;28;20552;-56
2023/06/17 05:44:42;;;;;;;19.20;13.43;;;14.00;99.90;;;;;;4998346;28;20117;-56
2023/06/17 05:47:07;;;;;;;39.53;13.57;;;14.10;99.90;;;;;;4995365;28;20037;-56
2023/06/17 05:49:33;;;;;;;43.35;12.82;;;14.20;99.90;;;;;;4998215;28;20613;-57
2023/06/17 05:51:59;;;;;;;46.60;12.60;;;14.30;99.90;;;;;;4998120;28;20031;-57
2023/06/17 05:54:24;;;;;;;13.40;12.30;;;14.30;99.90;;;;;;4994661;28;20027;-57
2023/06/17 05:56:50;;;;;;;30.80;12.13;;;14.40;99.90;;;;;;4997715;28;20112;-57
2023/06/17 05:59:16;;;;;;;14.05;11.43;;;14.50;99.90;;;;;;4998105;28;20378;-58
2023/06/17 06:01:41;;;;;;;14.30;11.45;;;14.70;99.90;;;;;;4998691;28;20627;-58
2023/06/17 06:04:07;;;;;;;17.58;11.52;;;14.80;99.90;;;;;;4998651;28;20027;-59
2023/06/17 06:06:33;;;;;;;22.77;12.25;;;14.90;99.90;;;;;;4998903;28;20027;-58
2023/06/17 06:08:58;;;;;;;19.80;13.35;;;15.00;99.90;;;;;;4996358;28;20026;-57
2023/06/17 06:11:24;;;;;;;13.93;12.07;;;14.80;99.90;;;;;;5001731;28;20134;-58
2023/06/17 06:13:50;;;;;;;15.05;12.18;;;14.70;99.90;;;;;;4999583;28;20050;-57
2023/06/17 06:16:15;;;;;;;13.25;12.15;;;14.70;99.90;;;;;;4998571;28;20034;-57
2023/06/17 06:18:41;;;;;;;14.52;13.27;;;14.80;99.90;;;;;;4998089;28;20133;-59
2023/06/17 06:21:06;;;;;;;25.88;13.93;;;14.80;99.90;;;;;;5000165;28;20030;-57
2023/06/17 06:23:33;;;;;;;14.43;12.70;;;14.90;99.90;;;;;;4996100;28;20026;-57
2023/06/17 06:25:59;;;;;;;13.52;12.55;;;14.90;99.90;;;;;;4996519;28;20022;-56
2023/06/17 06:28:24;;;;;;;13.95;12.57;;;15.20;99.90;;;;;;4993649;28;20021;-56
2023/06/17 06:30:50;;;;;;;12.85;11.85;;;15.40;99.90;;;;;;5005222;28;20045;-56
2023/06/17 06:33:16;;;;;;;19.17;12.60;;;15.60;99.90;;;;;;5004292;28;20517;-57
2023/06/17 06:35:43;;;;;;;13.40;12.05;;;15.70;99.90;;;;;;5001047;28;20022;-56
2023/06/17 06:38:08;;;;;;;13.18;11.93;;;15.90;99.90;;;;;;5001047;28;20582;-56
2023/06/17 06:40:34;;;;;;;14.45;12.25;;;15.70;99.90;;;;;;5001822;28;20018;-57
2023/06/17 06:42:59;;;;;;;13.82;12.43;;;15.60;99.90;;;;;;5005157;28;20030;-57
2023/06/17 06:45:25;;;;;;;17.27;10.95;;;15.80;99.90;;;;;;5002668;28;20026;-58
2023/06/17 06:47:51;;;;;;;11.07;10.07;;;15.80;99.90;;;;;;5003380;28;20461;-56
2023/06/17 06:50:16;;;;;;;13.48;10.52;;;15.80;99.90;;;;;;5002835;28;20108;-57
2023/06/17 06:52:42;;;;;;;13.73;11.18;;;15.60;99.90;;;;;;5003447;28;20474;-57
2023/06/17 06:55:08;;;;;;;13.52;12.52;;;15.50;99.90;;;;;;5001177;28;20125;-56
2023/06/17 06:57:34;;;;;;;14.05;13.07;;;15.40;99.90;;;;;;5000069;28;20644;-57
2023/06/17 06:59:59;;;;;;;14.77;13.65;;;15.40;99.90;;;;;;5001567;28;20034;-56
2023/06/17 07:02:25;;;;;;;13.38;12.38;;;15.40;99.90;;;;;;5004452;28;20029;-55
2023/06/17 07:04:51;;;;;;;14.85;13.60;;;15.50;99.90;;;;;;4999765;28;20034;-58
2023/06/17 07:07:17;;;;;;;13.63;12.60;;;15.50;99.90;;;;;;4999400;28;20048;-58
2023/06/17 07:09:42;;;;;;;13.02;11.88;;;15.50;99.90;;;;;;4999085;28;20399;-57
2023/06/17 07:12:09;;;;;;;14.00;12.77;;;15.50;99.90;;;;;;4993946;28;20038;-57
2023/06/17 07:14:35;;;;;;;12.73;11.73;;;15.60;99.90;;;;;;4999181;28;20438;-57
2023/06/17 07:17:01;;;;;;;12.98;12.00;;;15.70;99.90;;;;;;4999380;28;20037;-58
2023/06/17 07:19:26;;;;;;;13.25;11.90;;;15.80;99.90;;;;;;4999548;28;20054;-58
2023/06/17 07:21:52;;;;;;;13.50;11.75;;;15.80;99.90;;;;;;4998466;28;20049;-58
2023/06/17 07:24:17;;;;;;;13.52;12.43;;;15.80;99.90;;;;;;5003189;28;20037;-57
2023/06/17 07:26:44;;;;;;;11.60;10.80;;;15.90;99.90;;;;;;4999421;28;20037;-57
2023/06/17 07:29:09;;;;;;;11.23;10.35;;;15.90;99.90;;;;;;4997078;28;20029;-57
2023/06/17 07:31:35;;;;;;;11.75;10.80;;;15.90;99.90;;;;;;4999300;28;20029;-57
2023/06/17 07:34:01;;;;;;;12.65;10.18;;;16.00;99.90;;;;;;4995139;28;20115;-57
2023/06/17 07:36:26;;;;;;;11.50;10.70;;;16.00;99.90;;;;;;5000169;28;20029;-57
2023/06/17 07:38:52;;;;;;;12.38;11.38;;;16.10;99.90;;;;;;4999794;28;20522;-58
2023/06/17 07:41:18;;;;;;;10.60;9.70;;;16.20;99.90;;;;;;4998601;28;20030;-58
2023/06/17 07:43:44;;;;;;;9.13;8.07;;;16.20;99.90;;;;;;5000337;28;20498;-57
2023/06/17 07:46:10;;;;;;;9.20;7.88;;;16.20;99.90;;;;;;5000782;28;20119;-56
2023/06/17 07:48:35;;;;;;;7.75;7.15;;;16.10;99.90;;;;;;5000792;28;20022;-57
2023/06/17 07:51:01;;;;;;;9.20;8.50;;;16.10;99.90;;;;;;4998665;28;20049;-57
2023/06/17 07:53:26;;;;;;;8.43;7.75;;;16.10;99.90;;;;;;5000886;28;20030;-57
2023/06/17 07:55:53;;;;;;;8.88;8.18;;;16.20;99.90;;;;;;4998862;28;20034;-58
2023/06/17 07:58:19;;;;;;;8.25;7.55;;;16.20;99.90;;;;;;4999743;28;20738;-57
2023/06/17 08:00:45;;;;;;;9.20;8.40;;;16.30;99.90;;;;;;4998526;28;20041;-58
2023/06/17 08:03:11;;;;;;;10.15;9.30;;;16.30;99.90;;;;;;4997975;28;20037;-57
2023/06/17 08:05:36;;;;;;;9.27;8.57;;;16.40;99.90;;;;;;4999326;28;20023;-57
2023/06/17 08:08:02;;;;;;;8.77;8.18;;;16.50;99.90;;;;;;5000226;28;20053;-58
2023/06/17 08:10:28;;;;;;;8.57;7.78;;;16.60;99.90;;;;;;4999053;28;20497;-58
2023/06/17 08:12:53;;;;;;;8.02;7.40;;;16.70;99.90;;;;;;4997871;28;20037;-56
2023/06/17 08:15:19;;;;;;;8.90;8.18;;;16.80;99.90;;;;;;4995248;28;20030;-58
2023/06/17 08:17:47;;;;;;;8.52;7.93;;;16.90;99.90;;;;;;4997640;28;20088;-57
2023/06/17 08:20:13;;;;;;;8.75;7.95;;;17.00;99.90;;;;;;4998821;28;20029;-57
2023/06/17 08:22:39;;;;;;;8.38;7.68;;;17.20;99.90;;;;;;4999962;28;20117;-56
2023/06/17 08:25:05;;;;;;;8.15;7.45;;;17.30;99.90;;;;;;4996733;28;20642;-58
2023/06/17 08:27:32;;;;;;;7.68;7.07;;;17.30;99.90;;;;;;4995139;28;20038;-57
2023/06/17 08:29:58;;;;;;;8.38;7.68;;;17.30;99.90;;;;;;4997234;28;20038;-56
2023/06/17 08:32:24;;;;;;;7.32;6.75;;;17.30;99.90;;;;;;4996384;28;20085;-59
2023/06/17 08:34:50;;;;;;;7.85;7.25;;;17.30;99.90;;;;;;4998769;28;20041;-59
2023/06/17 08:37:16;;;;;;;11.70;6.55;;;17.50;99.90;;;;;;5000887;28;20034;-57
2023/06/17 08:39:42;;;;;;;7.72;7.03;;;17.60;99.90;;;;;;4996224;28;20038;-57
2023/06/17 08:42:09;;;;;;;7.28;6.75;;;17.70;99.90;;;;;;4996744;28;20037;-56
2023/06/17 08:44:38;;;;;;;6.88;6.38;;;17.70;99.90;;;;;;4997223;28;20453;-56
2023/06/17 08:47:05;;;;;;;7.30;6.70;;;17.80;99.90;;;;;;4996732;28;20038;-56
2023/06/17 08:49:31;;;;;;;7.47;6.38;;;17.90;99.90;;;;;;4993699;28;20415;-58
2023/06/17 08:52:00;;;;;;;7.22;6.63;;;17.90;99.90;;;;;;4995896;28;20042;-58
2023/06/17 08:54:29;;;;;;;7.20;6.15;;;18.00;99.90;;;;;;4997070;28;20046;-57
2023/06/17 08:56:55;;;;;;;7.47;6.72;;;18.10;99.90;;;;;;4997759;28;20117;-58
2023/06/17 08:59:20;;;;;;;6.93;6.43;;;18.20;99.90;;;;;;5002288;28;20113;-57
2023/06/17 09:01:48;;;;;;;7.25;6.65;;;18.40;99.90;;;;;;4999939;28;20782;-58
2023/06/17 09:04:14;;;;;;;8.55;7.30;;;18.60;99.90;;;;;;4994961;28;20053;-56
2023/06/17 09:06:40;;;;;;;6.93;6.35;;;18.80;99.90;;;;;;4996765;28;20495;-57
2023/06/17 09:09:06;;;;;;;6.50;6.00;;;19.00;99.90;;;;;;4999695;28;20025;-57
2023/06/17 09:11:32;;;;;;;5.80;5.30;;;19.20;99.90;;;;;;4994960;28;20114;-58
2023/06/17 09:14:00;;;;;;;5.53;5.07;;;19.30;99.90;;;;;;4999511;28;20032;-57
2023/06/17 09:16:27;;;;;;;5.57;5.15;;;19.40;99.90;;;;;;4999860;28;20021;-58
2023/06/17 09:19:01;;;;;;;5.82;4.97;;;19.50;99.90;;;;;;4999569;28;20402;-58
2023/06/17 09:21:27;;;;;;;6.03;5.28;;;19.60;99.90;;;;;;4996091;28;20113;-58
2023/06/17 09:23:55;;;;;;;7.60;5.63;;;19.70;99.90;;;;;;5003536;28;20026;-58
2023/06/17 09:26:25;;;;;;;5.13;4.68;;;19.90;99.90;;;;;;4996787;28;20410;-58
2023/06/17 09:28:51;;;;;;;4.35;4.05;;;20.10;99.90;;;;;;4995311;28;20056;-58
2023/06/17 09:31:18;;;;;;;4.43;3.67;;;20.10;99.90;;;;;;4998791;28;20933;-58
2023/06/17 09:33:45;;;;;;;4.30;3.95;;;20.30;99.90;;;;;;5000087;28;20034;-59
2023/06/17 09:36:11;;;;;;;10.65;3.72;;;20.50;99.90;;;;;;4998397;28;20036;-58
2023/06/17 09:38:38;;;;;;;4.10;3.80;;;20.60;99.90;;;;;;4999104;28;20030;-58
2023/06/17 09:41:04;;;;;;;5.20;4.60;;;20.70;99.90;;;;;;4999390;28;20066;-56
2023/06/17 09:43:30;;;;;;;5.10;3.90;;;20.80;99.90;;;;;;4999203;28;20026;-58
2023/06/17 09:46:14;;;;;;;4.75;4.28;;;20.90;99.90;;;;;;5000052;28;20041;-58
2023/06/17 09:48:40;;;;;;;4.40;3.65;;;21.00;99.90;;;;;;4998633;28;20032;-58
2023/06/17 09:51:12;;;;;;;6.25;4.30;;;21.20;99.90;;;;;;4999137;28;20395;-58
2023/06/17 09:53:41;;;;;;;7.22;4.22;;;21.20;99.90;;;;;;4999530;28;20104;-58
2023/06/17 09:56:10;;;;;;;4.78;4.13;;;21.30;99.90;;;;;;4998718;28;20030;-58
2023/06/17 09:58:37;;;;;;;4.72;4.32;;;21.30;99.90;;;;;;5001706;28;20020;-59
2023/06/17 10:01:07;;;;;;;15.70;4.22;;;21.50;99.90;;;;;;5001979;28;20030;-56
2023/06/17 10:03:34;;;;;;;4.07;3.72;;;21.60;99.90;;;;;;4998158;28;20215;-58
2023/06/17 10:06:08;;;;;;;4.53;3.80;;;21.70;99.90;;;;;;4998740;28;20121;-58
2023/06/17 10:08:36;;;;;;;5.63;3.92;;;22.00;99.90;;;;;;5000901;28;20214;-57
2023/06/17 10:11:02;;;;;;;4.35;3.95;;;22.40;99.90;;;;;;5004101;28;20014;-58
2023/06/17 10:13:39;;;;;;;3.85;3.55;;;22.50;99.90;;;;;;4985213;28;20025;-59
2023/06/17 10:16:09;;;;;;;3.97;3.67;;;22.70;87.70;;;;;;4999496;28;20030;-58
2023/06/17 10:18:36;;;;;;;4.28;3.50;;;22.70;84.40;;;;;;5001419;28;20546;-56
2023/06/17 10:21:03;;;;;;;4.07;3.72;;;22.60;82.50;;;;;;4999947;28;20038;-58
2023/06/17 10:23:30;;;;;;;4.10;3.70;;;22.60;84.50;;;;;;4997466;28;20022;-57
2023/06/17 10:25:56;;;;;;;4.32;3.92;;;22.60;86.40;;;;;;5001640;28;20505;-59
2023/06/17 10:28:22;;;;;;;6.10;4.35;;;22.70;85.50;;;;;;4999905;28;20026;-58
2023/06/17 10:30:51;;;;;;;4.05;3.65;;;22.70;77.30;;;;;;5003893;28;20041;-60
2023/06/17 10:33:27;;;;;;;8.32;3.67;;;22.80;99.60;;;;;;4998515;28;20035;-58
2023/06/17 10:36:07;;;;;;;5.88;3.95;;;22.90;91.80;;;;;;5002198;28;20066;-57
2023/06/17 10:38:34;;;;;;;4.23;3.93;;;22.90;77.00;;;;;;4999865;28;20027;-57
2023/06/17 10:41:00;;;;;;;4.18;3.83;;;23.00;82.40;;;;;;5002015;28;20049;-59
2023/06/17 10:43:26;;;;;;;4.25;3.85;;;23.00;77.50;;;;;;5001882;28;20060;-59
2023/06/17 10:45:55;;;;;;;3.78;3.45;;;23.10;69.70;;;;;;5000150;28;20037;-57
2023/06/17 10:48:27;;;;;;;3.40;2.83;;;23.20;72.60;;;;;;4999671;28;20033;-57
2023/06/17 10:51:00;;;;;;;3.38;3.05;;;23.30;68.00;;;;;;5000743;28;20049;-58
2023/06/17 10:53:36;;;;;;;3.85;3.45;;;23.50;64.00;;;;;;4996042;28;20044;-58
2023/06/17 10:56:03;;;;;;;4.20;3.80;;;23.60;64.80;;;;;;4999674;28;20036;-57
2023/06/17 10:58:47;;;;;;;4.20;2.97;;;23.70;64.50;;;;;;4998038;28;20045;-58
2023/06/17 11:01:13;;;;;;;3.92;3.63;;;23.80;62.30;;;;;;5000242;28;20062;-58
2023/06/17 11:03:40;;;;;;;2.80;2.60;;;24.00;64.20;;;;;;5000019;28;20030;-57
2023/06/17 11:06:07;;;;;;;3.50;3.20;;;24.10;61.50;;;;;;4999138;28;20494;-57
2023/06/17 11:08:35;;;;;;;4.82;3.35;;;24.30;60.40;;;;;;4999838;28;20033;-58
2023/06/17 11:11:08;;;;;;;3.47;3.15;;;24.30;59.20;;;;;;4995117;28;20026;-58
2023/06/17 11:13:34;;;;;;;3.50;3.20;;;24.50;60.90;;;;;;4998161;28;20096;-57
2023/06/17 11:15:59;;;;;;;3.80;3.33;;;24.60;60.80;;;;;;4997386;28;20030;-58
2023/06/17 11:18:25;;;;;;;5.68;3.42;;;24.80;63.50;;;;;;4996714;28;20049;-59
2023/06/17 11:20:51;;;;;;;3.92;3.22;;;24.90;62.40;;;;;;5000633;28;20034;-58
2023/06/17 11:23:18;;;;;;;5.93;3.22;;;24.90;61.10;;;;;;4997407;28;20170;-58
2023/06/17 11:25:44;;;;;;;4.45;3.28;;;24.80;60.70;;;;;;4997902;28;20022;-58
2023/06/17 11:28:11;;;;;;;3.63;3.33;;;24.70;59.30;;;;;;4994262;28;20038;-59
2023/06/17 11:30:38;;;;;;;3.40;2.90;;;24.70;59.60;;;;;;4997299;28;20157;-58
2023/06/17 11:33:04;;;;;;;3.45;3.15;;;24.80;58.80;;;;;;5002611;28;20092;-56
2023/06/17 11:35:30;;;;;;;4.72;3.35;;;24.90;56.30;;;;;;4998972;28;20028;-58
2023/06/17 11:37:56;;;;;;;6.05;3.05;;;25.00;56.90;;;;;;4999485;28;20030;-59
2023/06/17 11:40:22;;;;;;;4.50;3.25;;;25.00;57.10;;;;;;4999148;28;20037;-59
2023/06/17 11:42:48;;;;;;;3.17;2.90;;;24.90;57.00;;;;;;4997710;28;20034;-58
2023/06/17 11:45:14;;;;;;;4.70;3.33;;;24.80;58.90;;;;;;4995564;28;20035;-58
2023/06/17 11:47:40;;;;;;;4.68;2.97;;;24.80;58.00;;;;;;4998991;28;20058;-57
2023/06/17 11:50:06;;;;;;;3.53;3.25;;;24.90;56.20;;;;;;4999507;28;20124;-58
2023/06/17 11:52:35;;;;;;;6.35;3.40;;;25.00;56.60;;;;;;4999622;28;20040;-58
2023/06/17 11:55:02;;;;;;;5.07;2.85;;;25.20;54.60;;;;;;5001934;28;20108;-59
2023/06/17 11:57:28;;;;;;;4.90;3.22;;;25.30;55.00;;;;;;4997101;28;20204;-58
2023/06/17 12:00:05;;;;;;;3.25;3.03;;;25.40;53.80;;;;;;4999014;28;20125;-58
2023/06/17 12:02:34;;;;;;;4.07;3.45;;;25.30;56.60;;;;;;5000414;28;20490;-58
2023/06/17 12:05:02;;;;;;;3.38;3.17;;;25.40;55.10;;;;;;4999854;28;20810;-57
2023/06/17 12:07:28;;;;;;;6.07;3.60;;;25.50;55.00;;;;;;4999108;28;20026;-59
2023/06/17 12:09:54;;;;;;;3.25;2.95;;;25.60;55.30;;;;;;5000089;28;20041;-58
2023/06/17 12:12:35;;;;;;;3.05;2.75;;;25.60;51.90;;;;;;4997281;28;20048;-59
2023/06/17 12:15:06;;;;;;;3.00;2.70;;;25.60;54.30;;;;;;4998080;28;20137;-59
2023/06/17 12:17:41;;;;;;;;;;;25.70;51.20;;;;;;4998557;28;20118;-57
2023/06/17 12:20:15;;;;;;;3.35;2.60;;;25.60;51.60;;;;;;4999854;28;19905;-58
2023/06/17 12:22:46;;;;;;;5.30;3.45;;;25.60;50.90;;;;;;4996660;28;20018;-58
2023/06/17 12:25:12;;;;;;;;;;;25.50;51.00;;;;;;4998734;28;20494;-58
2023/06/17 12:27:38;;;;;;;3.00;2.78;;;25.50;51.10;;;;;;4999177;28;19975;-58
2023/06/17 12:30:05;;;;;;;3.25;2.95;;;25.60;52.10;;;;;;5001732;28;20049;-56
2023/06/17 12:32:31;;;;;;;3.20;2.85;;;25.70;49.20;;;;;;4998519;28;20050;-59
2023/06/17 12:34:58;;;;;;;3.17;2.97;;;25.70;47.80;;;;;;4998402;28;20057;-58